Time;durP1;ratioP1;P1;durP2;ratioP2;P2;SDS_P1;SDS_P2;PMS_P1;PMS_P2;Temp;Humidity;BMP_temperature;BMP_pressure;BME280_temperature;BME280_humidity;BME280_pressure;Samples;Min_cycle;Max_cycle;Signal;HPM_P1;HPM_P2
2020/12/25 00:00:38;;;;;;;8.80;3.40;;;2.10;99.90;;;;;;5075424;28;20254;-76
2020/12/25 00:03:05;;;;;;;6.13;2.70;;;2.20;99.90;;;;;;5075159;28;20241;-76
2020/12/25 00:05:31;;;;;;;10.10;3.37;;;2.20;99.90;;;;;;5075459;28;20664;-76
2020/12/25 00:07:58;;;;;;;6.57;2.83;;;2.20;99.90;;;;;;5074531;28;20315;-76
2020/12/25 00:10:25;;;;;;;6.53;2.77;;;2.30;99.90;;;;;;5071912;28;20238;-76
2020/12/25 00:12:51;;;;;;;9.10;3.30;;;2.30;99.90;;;;;;5071935;28;20234;-76
2020/12/25 00:15:18;;;;;;;9.43;3.60;;;2.40;99.90;;;;;;5073655;28;20718;-76
2020/12/25 00:17:44;;;;;;;7.00;3.17;;;2.40;99.90;;;;;;5075194;28;20226;-75
2020/12/25 00:20:10;;;;;;;6.90;3.03;;;2.40;99.90;;;;;;5074715;28;20257;-75
2020/12/25 00:22:37;;;;;;;7.03;3.00;;;2.50;99.90;;;;;;5071414;28;20664;-75
2020/12/25 00:25:03;;;;;;;8.20;3.00;;;2.50;99.90;;;;;;5067714;28;20206;-75
2020/12/25 00:27:31;;;;;;;5.87;2.70;;;2.50;99.90;;;;;;5054125;28;20317;-75
2020/12/25 00:29:57;;;;;;;5.13;2.77;;;2.50;99.90;;;;;;5062709;28;20307;-75
2020/12/25 00:32:23;;;;;;;10.27;3.20;;;2.50;99.90;;;;;;5054476;28;20238;-75
2020/12/25 00:34:50;;;;;;;9.83;3.30;;;2.50;99.90;;;;;;5040979;28;20225;-75
2020/12/25 00:37:16;;;;;;;6.77;2.83;;;2.60;99.90;;;;;;5072637;28;20367;-75
2020/12/25 00:39:43;;;;;;;6.33;2.93;;;2.60;99.90;;;;;;5074523;28;20282;-76
2020/12/25 00:42:10;;;;;;;9.70;2.70;;;2.60;99.90;;;;;;5074514;28;20291;-75
2020/12/25 00:44:37;;;;;;;8.83;2.80;;;2.50;99.90;;;;;;5074294;28;20207;-75
2020/12/25 00:47:04;;;;;;;6.57;2.63;;;2.50;99.90;;;;;;5074012;28;20254;-75
2020/12/25 00:49:30;;;;;;;8.80;2.60;;;2.50;99.90;;;;;;5062387;28;20281;-75
2020/12/25 00:51:56;;;;;;;7.07;2.73;;;2.50;99.90;;;;;;5054468;28;20239;-75
2020/12/25 00:54:23;;;;;;;8.87;3.10;;;2.50;99.90;;;;;;5060786;28;20657;-76
2020/12/25 00:56:49;;;;;;;10.00;2.73;;;2.50;99.90;;;;;;5069855;28;20215;-75
2020/12/25 00:59:16;;;;;;;7.27;2.60;;;2.50;99.90;;;;;;5064896;28;20674;-75
2020/12/25 01:01:44;;;;;;;8.80;3.20;;;2.40;99.90;;;;;;5072588;28;20217;-75
2020/12/25 01:04:10;;;;;;;8.13;2.80;;;2.40;99.90;;;;;;5071324;28;20310;-75
2020/12/25 01:06:36;;;;;;;9.47;2.70;;;2.30;99.90;;;;;;5073485;28;20307;-75
2020/12/25 01:09:03;;;;;;;11.97;2.60;;;2.30;99.90;;;;;;5070289;28;20228;-76
2020/12/25 01:11:30;;;;;;;9.57;2.83;;;2.30;99.90;;;;;;5071724;28;20613;-75
2020/12/25 01:13:56;;;;;;;11.40;3.10;;;2.30;99.90;;;;;;5073381;28;20235;-75
2020/12/25 01:16:23;;;;;;;9.60;2.53;;;2.30;99.90;;;;;;5073746;28;20609;-76
2020/12/25 01:18:50;;;;;;;10.37;2.77;;;2.30;99.90;;;;;;5073722;28;20618;-75
2020/12/25 01:21:17;;;;;;;11.73;3.10;;;2.30;99.90;;;;;;5054401;28;20325;-75
2020/12/25 01:23:44;;;;;;;9.50;2.60;;;2.30;99.90;;;;;;5070820;28;20233;-75
2020/12/25 01:26:11;;;;;;;10.43;2.73;;;2.30;99.90;;;;;;5060451;28;20235;-75
2020/12/25 01:28:37;;;;;;;9.17;2.73;;;2.40;99.90;;;;;;5054390;28;20274;-75
2020/12/25 01:31:04;;;;;;;9.53;3.07;;;2.40;99.90;;;;;;5073461;28;20299;-75
2020/12/25 01:33:30;;;;;;;12.60;2.87;;;2.50;99.90;;;;;;5073477;28;20242;-75
2020/12/25 01:35:58;;;;;;;6.10;2.43;;;2.50;99.90;;;;;;5073335;28;20227;-74
2020/12/25 01:38:24;;;;;;;11.43;3.00;;;2.60;99.90;;;;;;5063265;28;20227;-75
2020/12/25 01:40:50;;;;;;;9.13;2.50;;;2.70;99.90;;;;;;5053322;28;20610;-75
2020/12/25 01:43:17;;;;;;;7.47;2.63;;;2.70;99.90;;;;;;5055670;28;20634;-75
2020/12/25 01:45:43;;;;;;;8.87;2.60;;;2.80;99.90;;;;;;5052862;28;20248;-75
2020/12/25 01:48:11;;;;;;;8.33;2.30;;;2.80;99.90;;;;;;5054768;28;20300;-75
2020/12/25 01:50:37;;;;;;;5.97;2.60;;;3.00;99.90;;;;;;5059559;28;20589;-75
2020/12/25 01:53:08;;;;;;;7.87;2.10;;;3.00;99.90;;;;;;5072576;28;20238;-75
2020/12/25 01:55:37;;;;;;;7.23;2.43;;;3.00;99.90;;;;;;5068998;28;20198;-75
2020/12/25 01:58:04;;;;;;;7.63;2.60;;;2.90;99.90;;;;;;5053081;28;20227;-75
2020/12/25 02:00:31;;;;;;;8.73;2.60;;;3.00;99.90;;;;;;5059205;28;20208;-75
2020/12/25 02:02:58;;;;;;;7.60;2.10;;;3.20;99.90;;;;;;5052599;28;20229;-75
2020/12/25 02:05:25;;;;;;;8.70;2.50;;;3.20;99.90;;;;;;5059426;28;20231;-75
2020/12/25 02:07:55;;;;;;;8.30;2.30;;;3.40;99.90;;;;;;5071892;28;20251;-76
2020/12/25 02:10:23;;;;;;;7.27;2.13;;;3.40;99.90;;;;;;5055743;28;20209;-76
2020/12/25 02:12:51;;;;;;;6.93;2.17;;;3.40;99.90;;;;;;5052690;28;20693;-76
2020/12/25 02:15:18;;;;;;;8.03;2.20;;;3.40;99.90;;;;;;5052819;28;20234;-75
2020/12/25 02:17:45;;;;;;;6.97;2.13;;;3.40;99.90;;;;;;5066961;28;20285;-75
2020/12/25 02:20:12;;;;;;;6.77;2.23;;;3.30;99.90;;;;;;5071981;28;20201;-76
2020/12/25 02:22:39;;;;;;;6.50;2.37;;;3.30;99.90;;;;;;5072815;28;20287;-76
2020/12/25 02:25:07;;;;;;;5.93;2.00;;;3.30;99.90;;;;;;5071837;28;20678;-75
2020/12/25 02:27:33;;;;;;;8.73;2.20;;;3.30;99.90;;;;;;5072694;28;20321;-76
2020/12/25 02:30:00;;;;;;;7.53;2.50;;;3.30;99.90;;;;;;5064277;28;20259;-75
2020/12/25 02:32:26;;;;;;;8.50;1.83;;;3.20;99.90;;;;;;5065511;28;20233;-75
2020/12/25 02:34:52;;;;;;;6.20;2.10;;;3.30;99.90;;;;;;5071103;28;20234;-76
2020/12/25 02:37:19;;;;;;;5.10;1.90;;;3.20;99.90;;;;;;5062130;28;20599;-76
2020/12/25 02:39:47;;;;;;;5.13;1.87;;;3.20;99.90;;;;;;5052250;28;20268;-76
2020/12/25 02:42:13;;;;;;;8.07;1.97;;;3.00;99.90;;;;;;5058848;28;20197;-76
2020/12/25 02:44:42;;;;;;;7.87;2.30;;;3.00;99.90;;;;;;5070640;28;20232;-75
2020/12/25 02:47:09;;;;;;;6.90;2.00;;;2.90;99.90;;;;;;5080018;28;20312;-77
2020/12/25 02:49:36;;;;;;;6.43;1.90;;;2.80;99.90;;;;;;5071115;28;20583;-75
2020/12/25 02:52:02;;;;;;;6.77;2.00;;;2.90;99.90;;;;;;5071889;28;20235;-76
2020/12/25 02:54:28;;;;;;;6.67;2.30;;;3.00;99.90;;;;;;5071707;28;20697;-75
2020/12/25 02:56:56;;;;;;;4.10;1.87;;;3.00;99.90;;;;;;5072126;28;20233;-76
2020/12/25 02:59:22;;;;;;;7.33;2.17;;;2.90;99.90;;;;;;5071687;28;20609;-76
2020/12/25 03:01:49;;;;;;;6.70;2.30;;;2.80;99.90;;;;;;5071481;28;20237;-76
2020/12/25 03:04:16;;;;;;;7.73;1.93;;;2.90;99.90;;;;;;5070693;28;20200;-76
2020/12/25 03:06:42;;;;;;;5.27;1.87;;;2.80;99.90;;;;;;5069947;28;22121;-75
2020/12/25 03:09:09;;;;;;;6.07;1.97;;;2.80;99.90;;;;;;5070991;28;20231;-76
2020/12/25 03:11:35;;;;;;;5.50;2.07;;;2.80;99.90;;;;;;5071303;28;20207;-75
2020/12/25 03:14:02;;;;;;;6.73;1.87;;;2.70;99.90;;;;;;5072038;28;20268;-75
2020/12/25 03:16:29;;;;;;;7.47;1.90;;;2.60;99.90;;;;;;5071346;28;20232;-76
2020/12/25 03:18:55;;;;;;;6.43;1.90;;;2.70;99.90;;;;;;5064220;28;20636;-76
2020/12/25 03:21:22;;;;;;;7.60;2.10;;;2.60;99.90;;;;;;5071684;28;20291;-75
2020/12/25 03:23:48;;;;;;;5.83;1.90;;;2.50;99.90;;;;;;5072152;28;20241;-75
2020/12/25 03:26:15;;;;;;;6.20;2.00;;;2.70;99.90;;;;;;5059863;28;20274;-75
2020/12/25 03:28:42;;;;;;;6.83;1.90;;;2.70;99.90;;;;;;5051808;28;20319;-76
2020/12/25 03:31:09;;;;;;;4.90;2.10;;;2.70;99.90;;;;;;5066102;28;20238;-76
2020/12/25 03:33:35;;;;;;;8.07;2.00;;;2.80;99.90;;;;;;5071630;28;20236;-76
2020/12/25 03:36:02;;;;;;;7.47;2.30;;;2.90;99.90;;;;;;5071726;28;20240;-75
2020/12/25 03:38:29;;;;;;;3.77;1.90;;;3.10;99.90;;;;;;5071587;28;20623;-76
2020/12/25 03:40:55;;;;;;;6.17;2.03;;;3.20;99.90;;;;;;5071507;28;20231;-76
2020/12/25 03:43:21;;;;;;;7.83;1.87;;;3.30;99.90;;;;;;5071742;28;20236;-76
2020/12/25 03:45:48;;;;;;;6.87;2.03;;;3.30;99.90;;;;;;5068752;28;20234;-76
2020/12/25 03:48:16;;;;;;;8.00;1.80;;;3.30;99.90;;;;;;5070137;28;20338;-75
2020/12/25 03:50:42;;;;;;;9.67;2.00;;;3.40;99.90;;;;;;5054045;28;20694;-76
2020/12/25 03:53:08;;;;;;;4.70;1.57;;;3.40;99.90;;;;;;5069105;28;20205;-75
2020/12/25 03:55:35;;;;;;;6.03;1.47;;;3.40;99.90;;;;;;5070892;28;20221;-76
2020/12/25 03:58:01;;;;;;;6.80;1.70;;;3.50;99.90;;;;;;5054290;28;20228;-76
2020/12/25 04:00:27;;;;;;;6.43;1.60;;;3.80;99.90;;;;;;5051176;28;20245;-75
2020/12/25 04:02:54;;;;;;;6.47;2.13;;;3.80;99.90;;;;;;5059562;28;20229;-76
2020/12/25 04:05:21;;;;;;;5.77;1.70;;;3.90;99.90;;;;;;5067201;28;20255;-76
2020/12/25 04:07:47;;;;;;;5.30;1.70;;;3.80;99.90;;;;;;5070916;28;20305;-76
2020/12/25 04:10:14;;;;;;;6.13;1.67;;;3.80;99.90;;;;;;5071588;28;20251;-76
2020/12/25 04:12:40;;;;;;;7.70;1.73;;;3.90;99.90;;;;;;5074100;28;20240;-76
2020/12/25 04:15:07;;;;;;;6.37;1.90;;;3.80;99.90;;;;;;5074786;28;20291;-76
2020/12/25 04:17:33;;;;;;;5.83;1.60;;;3.90;99.90;;;;;;5074391;28;20225;-76
2020/12/25 04:19:59;;;;;;;6.83;2.10;;;3.90;99.90;;;;;;5073910;28;20833;-76
2020/12/25 04:22:27;;;;;;;5.73;1.77;;;3.90;99.90;;;;;;5074700;28;20244;-76
2020/12/25 04:24:53;;;;;;;5.53;1.47;;;3.90;99.90;;;;;;5073728;28;20243;-75
2020/12/25 04:27:19;;;;;;;6.10;1.60;;;4.10;99.90;;;;;;5074666;28;20232;-75
2020/12/25 04:29:46;;;;;;;5.30;1.70;;;4.10;99.90;;;;;;5073865;28;20279;-76
2020/12/25 04:32:12;;;;;;;3.53;1.60;;;4.10;99.90;;;;;;5074402;28;20232;-76
2020/12/25 04:34:39;;;;;;;8.83;1.90;;;4.20;99.90;;;;;;5074255;28;20233;-76
2020/12/25 04:37:05;;;;;;;5.20;1.60;;;4.10;99.90;;;;;;5074484;28;20764;-76
2020/12/25 04:39:32;;;;;;;5.57;1.47;;;4.30;99.90;;;;;;5069298;28;20203;-76
2020/12/25 04:41:59;;;;;;;5.30;1.40;;;4.20;99.90;;;;;;5054270;28;20234;-76
2020/12/25 04:44:26;;;;;;;4.87;1.57;;;4.20;99.90;;;;;;5060287;28;20728;-76
2020/12/25 04:46:53;;;;;;;8.47;1.70;;;4.20;99.90;;;;;;5067225;28;22182;-76
2020/12/25 04:49:20;;;;;;;7.73;1.37;;;4.10;99.90;;;;;;5071593;28;20202;-76
2020/12/25 04:51:46;;;;;;;6.57;1.60;;;4.10;99.90;;;;;;5067038;28;20293;-76
2020/12/25 04:54:13;;;;;;;4.53;1.50;;;4.10;99.90;;;;;;5074110;28;20716;-76
2020/12/25 04:56:40;;;;;;;6.00;1.40;;;4.00;99.90;;;;;;5074242;28;20206;-75
2020/12/25 04:59:07;;;;;;;8.10;1.67;;;4.00;99.90;;;;;;5073488;28;20299;-76
2020/12/25 05:01:33;;;;;;;4.40;1.37;;;3.90;99.90;;;;;;5073376;28;20199;-76
2020/12/25 05:04:00;;;;;;;6.37;1.33;;;4.00;99.90;;;;;;5073994;28;20229;-76
2020/12/25 05:06:28;;;;;;;4.23;1.23;;;3.80;99.90;;;;;;5073769;28;20229;-76
2020/12/25 05:08:54;;;;;;;4.67;1.13;;;3.80;99.90;;;;;;5073728;28;20698;-76
2020/12/25 05:11:21;;;;;;;5.37;1.60;;;3.80;99.90;;;;;;5073753;28;20229;-76
2020/12/25 05:13:50;;;;;;;3.07;1.10;;;3.90;99.90;;;;;;5073890;28;20684;-75
2020/12/25 05:16:18;;;;;;;5.43;1.40;;;3.70;99.90;;;;;;5073423;28;20281;-76
2020/12/25 05:18:46;;;;;;;5.70;1.53;;;3.70;99.90;;;;;;5065231;28;20204;-76
2020/12/25 05:21:14;;;;;;;5.73;1.40;;;3.80;99.90;;;;;;5073953;28;20199;-76
2020/12/25 05:23:41;;;;;;;4.43;1.50;;;3.90;99.90;;;;;;5091650;28;20247;-77
2020/12/25 05:26:10;;;;;;;4.83;1.60;;;3.90;99.90;;;;;;5074723;28;20227;-75
2020/12/25 05:28:38;;;;;;;5.77;1.70;;;3.70;99.90;;;;;;5069906;28;20318;-76
2020/12/25 05:31:06;;;;;;;5.07;1.73;;;3.60;99.90;;;;;;5062556;28;20201;-76
2020/12/25 05:33:33;;;;;;;7.63;1.60;;;3.60;99.90;;;;;;5054791;28;20267;-76
2020/12/25 05:36:03;;;;;;;7.80;1.70;;;3.60;99.90;;;;;;5064735;28;20669;-76
2020/12/25 05:38:30;;;;;;;5.90;1.70;;;3.60;99.90;;;;;;5053446;28;20234;-76
2020/12/25 05:40:59;;;;;;;5.40;1.60;;;3.50;99.90;;;;;;5066747;28;20236;-76
2020/12/25 05:43:26;;;;;;;7.17;1.57;;;3.40;99.90;;;;;;5073113;28;20296;-75
2020/12/25 05:45:53;;;;;;;7.07;1.70;;;3.40;99.90;;;;;;5072377;28;20240;-76
2020/12/25 05:48:20;;;;;;;8.57;1.40;;;3.40;99.90;;;;;;5072942;28;20259;-76
2020/12/25 05:50:48;;;;;;;6.40;1.40;;;3.40;99.90;;;;;;5073077;28;20237;-76
2020/12/25 05:53:14;;;;;;;5.07;1.33;;;3.40;99.90;;;;;;5072573;28;20240;-76
2020/12/25 05:55:41;;;;;;;4.97;1.50;;;3.40;99.90;;;;;;5072382;28;20240;-75
2020/12/25 05:58:12;;;;;;;7.00;1.50;;;3.30;99.90;;;;;;5072957;28;20200;-75
2020/12/25 06:00:42;;;;;;;4.60;1.57;;;3.30;99.90;;;;;;5073027;28;20245;-75
2020/12/25 06:03:11;;;;;;;4.60;1.40;;;3.20;99.90;;;;;;5073055;28;20236;-75
2020/12/25 06:05:40;;;;;;;5.00;1.40;;;3.30;99.90;;;;;;5052952;28;20245;-75
2020/12/25 06:08:16;;;;;;;8.03;1.50;;;3.30;99.90;;;;;;5057518;28;20240;-75
2020/12/25 06:10:44;;;;;;;7.00;1.60;;;3.50;99.90;;;;;;5067467;28;20282;-75
2020/12/25 06:13:14;;;;;;;7.27;1.60;;;3.50;99.90;;;;;;5052849;28;20210;-76
2020/12/25 06:15:46;;;;;;;8.23;1.47;;;3.60;99.90;;;;;;5070299;28;20238;-76
2020/12/25 06:18:27;;;;;;;7.00;1.33;;;3.70;99.90;;;;;;5072086;28;20251;-75
2020/12/25 06:20:59;;;;;;;6.77;1.60;;;3.80;99.90;;;;;;5067872;28;20686;-75
2020/12/25 06:23:29;;;;;;;4.33;1.30;;;3.70;99.90;;;;;;5086232;28;20250;-75
2020/12/25 06:25:56;;;;;;;4.40;1.30;;;3.70;99.90;;;;;;5061414;28;20228;-76
2020/12/25 06:28:22;;;;;;;5.10;1.20;;;3.50;99.90;;;;;;5071266;28;20276;-75
2020/12/25 06:30:49;;;;;;;6.47;1.40;;;3.50;99.90;;;;;;5072239;28;20238;-75
2020/12/25 06:33:15;;;;;;;4.90;1.20;;;3.50;99.90;;;;;;5072481;28;20229;-75
2020/12/25 06:35:47;;;;;;;5.73;1.40;;;3.60;99.90;;;;;;5069211;28;20216;-75
2020/12/25 06:38:18;;;;;;;6.27;1.43;;;3.80;99.90;;;;;;5072144;28;20202;-75
2020/12/25 06:40:44;;;;;;;4.50;1.63;;;4.00;99.90;;;;;;5063445;28;20214;-75
2020/12/25 06:43:16;;;;;;;6.00;1.20;;;4.10;99.90;;;;;;5068084;28;20214;-75
2020/12/25 06:45:43;;;;;;;9.07;1.60;;;4.00;99.90;;;;;;5070257;28;20678;-76
2020/12/25 06:48:15;;;;;;;4.87;1.20;;;4.00;99.90;;;;;;5053948;28;20254;-75
2020/12/25 06:50:43;;;;;;;4.77;1.17;;;3.90;99.90;;;;;;5072327;28;20244;-75
2020/12/25 06:53:10;;;;;;;4.03;1.07;;;3.90;99.90;;;;;;5071456;28;20228;-75
2020/12/25 06:55:44;;;;;;;5.07;1.10;;;3.80;99.90;;;;;;5071255;28;20607;-75
2020/12/25 06:58:11;;;;;;;5.87;1.77;;;3.80;99.90;;;;;;5071802;28;20746;-75
2020/12/25 07:00:40;;;;;;;5.30;1.40;;;3.80;99.90;;;;;;5057159;28;20268;-75
2020/12/25 07:03:11;;;;;;;4.57;1.30;;;3.80;99.90;;;;;;5051798;28;20253;-75
2020/12/25 07:05:45;;;;;;;6.40;1.33;;;3.80;99.90;;;;;;5052573;28;20210;-75
2020/12/25 07:08:28;;;;;;;5.87;1.13;;;3.70;99.90;;;;;;5051672;28;20267;-75
2020/12/25 07:11:08;;;;;;;6.17;1.20;;;3.70;99.90;;;;;;5052032;28;20232;-75
2020/12/25 07:13:36;;;;;;;6.00;1.37;;;3.50;99.90;;;;;;5052125;28;20286;-75
2020/12/25 07:16:03;;;;;;;3.50;1.17;;;3.40;99.90;;;;;;5071445;28;20313;-75
2020/12/25 07:18:30;;;;;;;5.93;1.43;;;3.70;99.90;;;;;;5069212;28;20292;-75
2020/12/25 07:20:58;;;;;;;4.10;1.17;;;3.60;99.90;;;;;;5068618;28;20210;-75
2020/12/25 07:23:25;;;;;;;3.13;1.30;;;3.50;99.90;;;;;;5071325;28;20233;-76
2020/12/25 07:25:53;;;;;;;3.60;1.20;;;3.30;99.90;;;;;;5063568;28;20230;-76
2020/12/25 07:28:24;;;;;;;3.97;1.20;;;3.30;99.90;;;;;;5068781;28;20312;-76
2020/12/25 07:30:52;;;;;;;5.13;1.20;;;3.30;99.90;;;;;;5068129;28;20242;-76
2020/12/25 07:33:18;;;;;;;5.87;1.60;;;3.30;99.90;;;;;;5063906;28;20371;-73
2020/12/25 07:35:45;;;;;;;8.30;1.60;;;3.30;99.90;;;;;;5070602;28;20232;-76
2020/12/25 07:38:13;;;;;;;3.37;1.00;;;3.20;99.90;;;;;;5071236;28;20240;-76
2020/12/25 07:40:40;;;;;;;3.13;1.43;;;3.10;99.90;;;;;;5071738;28;20292;-76
2020/12/25 07:43:07;;;;;;;3.70;1.23;;;3.40;99.90;;;;;;5071285;28;20230;-76
2020/12/25 07:45:35;;;;;;;9.97;1.43;;;3.50;99.90;;;;;;5070837;28;20232;-76
2020/12/25 07:48:03;;;;;;;7.30;1.50;;;3.60;99.90;;;;;;5074819;28;20341;-76
2020/12/25 07:50:34;;;;;;;4.63;1.80;;;3.60;99.90;;;;;;5075528;28;20746;-76
2020/12/25 07:53:01;;;;;;;3.37;1.57;;;3.50;99.90;;;;;;5075433;28;20252;-76
2020/12/25 07:55:29;;;;;;;4.30;1.50;;;3.50;99.90;;;;;;5071926;28;20237;-76
2020/12/25 07:57:56;;;;;;;7.87;1.43;;;3.40;99.90;;;;;;5075413;28;20206;-76
2020/12/25 08:00:23;;;;;;;4.20;1.23;;;3.40;99.90;;;;;;5074133;28;20207;-80
2020/12/25 08:02:54;;;;;;;7.00;1.40;;;3.60;99.90;;;;;;5075426;28;20244;-80
2020/12/25 08:05:20;;;;;;;8.37;1.60;;;3.50;99.90;;;;;;5075197;28;20556;-79
2020/12/25 08:07:48;;;;;;;5.17;1.50;;;3.40;99.90;;;;;;5075138;28;20316;-80
2020/12/25 08:10:18;;;;;;;6.33;1.77;;;3.50;99.90;;;;;;5066500;28;20233;-80
2020/12/25 08:12:49;;;;;;;6.17;1.23;;;3.60;99.90;;;;;;5055365;28;20206;-80
2020/12/25 08:15:16;;;;;;;4.50;1.20;;;3.70;99.90;;;;;;5055631;28;20602;-80
2020/12/25 08:17:45;;;;;;;6.40;1.40;;;3.90;99.90;;;;;;5070787;28;20573;-80
2020/12/25 08:20:12;;;;;;;5.77;1.40;;;3.80;99.90;;;;;;5075854;28;20205;-80
2020/12/25 08:22:38;;;;;;;5.20;1.70;;;3.70;99.90;;;;;;5073972;28;20740;-80
2020/12/25 08:25:05;;;;;;;6.13;1.40;;;3.70;99.90;;;;;;5074421;28;20293;-80
2020/12/25 08:27:33;;;;;;;4.83;1.63;;;3.80;99.90;;;;;;5074059;28;20307;-80
2020/12/25 08:30:05;;;;;;;6.30;1.40;;;3.90;99.90;;;;;;5074714;28;20291;-80
2020/12/25 08:32:32;;;;;;;3.97;1.23;;;3.80;99.90;;;;;;5061708;28;20281;-80
2020/12/25 08:35:18;;;;;;;5.67;1.40;;;4.00;99.90;;;;;;5072907;28;20216;-79
2020/12/25 08:37:58;;;;;;;4.03;1.00;;;4.70;99.90;;;;;;5074413;28;20259;-81
2020/12/25 08:40:29;;;;;;;7.30;1.43;;;5.10;99.90;;;;;;5075814;28;20337;-79
2020/12/25 08:43:05;;;;;;;4.67;1.50;;;5.40;99.90;;;;;;5083272;28;20230;-80
2020/12/25 08:45:31;;;;;;;7.27;1.20;;;5.90;99.90;;;;;;5070477;28;20226;-80
2020/12/25 08:48:11;;;;;;;5.00;1.60;;;6.00;99.90;;;;;;5074054;28;20310;-79
2020/12/25 08:50:40;;;;;;;4.47;1.63;;;6.50;99.90;;;;;;5068244;28;20233;-80
2020/12/25 08:53:15;;;;;;;5.47;1.70;;;6.70;99.90;;;;;;5055064;28;20199;-80
2020/12/25 08:55:42;;;;;;;5.60;1.40;;;6.80;99.90;;;;;;5073488;28;20203;-80
2020/12/25 08:58:09;;;;;;;5.50;1.00;;;7.30;99.90;;;;;;5069807;28;20233;-81
2020/12/25 09:00:35;;;;;;;5.63;1.57;;;7.70;99.90;;;;;;5072113;28;20203;-80
2020/12/25 09:03:02;;;;;;;5.93;1.10;;;7.70;99.90;;;;;;5073740;28;20268;-81
2020/12/25 09:05:29;;;;;;;4.43;1.10;;;7.40;99.90;;;;;;5073829;28;20646;-80
2020/12/25 09:07:56;;;;;;;4.00;1.50;;;7.60;99.90;;;;;;5071764;28;20218;-80
2020/12/25 09:10:23;;;;;;;4.20;1.17;;;7.80;99.90;;;;;;5074168;28;20234;-81
2020/12/25 09:12:50;;;;;;;4.43;1.30;;;8.10;99.90;;;;;;5073713;28;20701;-81
2020/12/25 09:15:16;;;;;;;8.13;1.70;;;8.30;99.90;;;;;;5073988;28;20211;-81
2020/12/25 09:17:43;;;;;;;5.33;1.37;;;7.90;99.90;;;;;;5073629;28;20198;-81
2020/12/25 09:20:09;;;;;;;4.90;1.20;;;7.80;99.90;;;;;;5073408;28;20234;-81
2020/12/25 09:22:36;;;;;;;6.00;1.70;;;8.00;99.90;;;;;;5054617;28;20291;-81
2020/12/25 09:25:03;;;;;;;5.10;1.40;;;8.50;99.90;;;;;;5054375;28;20215;-81
2020/12/25 09:27:29;;;;;;;6.30;1.47;;;8.30;99.90;;;;;;5073297;28;20270;-82
2020/12/25 09:29:56;;;;;;;5.53;1.20;;;8.20;99.90;;;;;;5073780;28;20246;-83
2020/12/25 09:32:22;;;;;;;4.67;1.03;;;8.60;99.90;;;;;;5071857;28;20715;-82
2020/12/25 09:34:49;;;;;;;4.03;1.23;;;8.20;99.90;;;;;;5073921;28;20276;-82
2020/12/25 09:37:15;;;;;;;4.60;1.20;;;8.20;99.90;;;;;;5068950;28;20208;-82
2020/12/25 09:39:42;;;;;;;4.30;1.40;;;8.10;99.90;;;;;;5059824;28;20230;-83
2020/12/25 09:42:09;;;;;;;3.43;1.03;;;8.30;99.90;;;;;;5072396;28;20627;-82
2020/12/25 09:44:37;;;;;;;5.40;1.17;;;8.50;99.90;;;;;;5070128;28;20814;-82
2020/12/25 09:47:04;;;;;;;2.97;1.13;;;8.20;99.90;;;;;;5067931;28;20276;-82
2020/12/25 09:49:30;;;;;;;4.63;1.60;;;8.40;99.90;;;;;;5070116;28;20259;-82
2020/12/25 09:52:03;;;;;;;3.63;0.97;;;8.20;99.90;;;;;;5072188;28;20855;-82
2020/12/25 09:54:30;;;;;;;4.73;1.17;;;8.20;99.90;;;;;;5064596;28;20230;-82
2020/12/25 09:56:56;;;;;;;3.40;1.10;;;8.10;99.90;;;;;;5065977;28;20616;-83
2020/12/25 09:59:23;;;;;;;8.70;1.50;;;8.20;99.90;;;;;;5057593;28;20229;-82
2020/12/25 10:01:51;;;;;;;6.77;1.67;;;8.20;99.90;;;;;;5052783;28;20243;-82
2020/12/25 10:04:18;;;;;;;3.37;1.13;;;8.60;99.90;;;;;;5053231;28;20249;-82
2020/12/25 10:06:44;;;;;;;6.37;1.60;;;8.90;99.90;;;;;;5053349;28;20231;-82
2020/12/25 10:09:11;;;;;;;5.27;2.00;;;9.40;99.90;;;;;;5052334;28;20319;-80
2020/12/25 10:11:38;;;;;;;5.67;1.40;;;9.80;99.90;;;;;;5053462;28;20238;-82
2020/12/25 10:14:04;;;;;;;5.20;1.20;;;9.90;99.90;;;;;;5053219;28;20235;-82
2020/12/25 10:16:32;;;;;;;3.83;1.27;;;9.20;99.90;;;;;;5052930;28;20287;-82
2020/12/25 10:18:58;;;;;;;2.50;0.90;;;9.00;99.90;;;;;;5052384;28;20675;-82
2020/12/25 10:21:24;;;;;;;6.57;1.10;;;9.00;99.90;;;;;;5053017;28;20250;-82
2020/12/25 10:23:51;;;;;;;2.90;0.90;;;9.40;99.90;;;;;;5052908;28;20238;-82
2020/12/25 10:26:17;;;;;;;5.33;1.30;;;8.90;99.90;;;;;;5052867;28;20231;-82
2020/12/25 10:28:44;;;;;;;6.53;1.50;;;9.20;99.90;;;;;;5052704;28;20381;-82
2020/12/25 10:31:10;;;;;;;3.37;1.20;;;9.00;99.90;;;;;;5052737;28;20238;-82
2020/12/25 10:33:38;;;;;;;4.87;0.97;;;8.70;99.90;;;;;;5052544;28;20243;-80
2020/12/25 10:36:05;;;;;;;3.97;1.23;;;8.90;99.90;;;;;;5052559;28;20727;-80
2020/12/25 10:38:31;;;;;;;5.53;1.13;;;9.30;99.90;;;;;;5053614;28;20752;-80
2020/12/25 10:40:58;;;;;;;7.30;1.50;;;9.80;99.90;;;;;;5072676;28;20230;-82
2020/12/25 10:43:25;;;;;;;5.30;1.30;;;9.30;99.90;;;;;;5072851;28;20195;-83
2020/12/25 10:45:51;;;;;;;3.77;1.10;;;9.60;99.90;;;;;;5072417;28;20623;-82
2020/12/25 10:48:18;;;;;;;6.13;1.47;;;9.10;99.90;;;;;;5072731;28;20258;-82
2020/12/25 10:50:45;;;;;;;5.07;1.30;;;9.20;99.90;;;;;;5061464;28;20621;-83
2020/12/25 10:53:12;;;;;;;5.13;1.30;;;9.20;99.90;;;;;;5052239;28;20234;-82
2020/12/25 10:55:38;;;;;;;4.03;1.20;;;8.90;99.90;;;;;;5052575;28;20672;-82
2020/12/25 10:58:05;;;;;;;4.77;1.10;;;9.50;99.90;;;;;;5052543;28;20233;-82
2020/12/25 11:00:32;;;;;;;4.87;1.17;;;9.30;99.90;;;;;;5052025;28;20683;-82
2020/12/25 11:02:58;;;;;;;5.33;1.10;;;9.20;99.90;;;;;;5049548;28;20276;-81
2020/12/25 11:05:24;;;;;;;3.60;0.80;;;9.20;99.90;;;;;;5072166;28;20632;-81
2020/12/25 11:07:54;;;;;;;4.70;1.00;;;8.80;99.90;;;;;;5072274;28;20245;-82
2020/12/25 11:10:20;;;;;;;2.97;1.20;;;9.00;99.90;;;;;;5072085;28;20206;-82
2020/12/25 11:12:47;;;;;;;5.43;1.23;;;9.10;99.90;;;;;;5072186;28;20238;-82
2020/12/25 11:15:13;;;;;;;6.70;1.20;;;9.20;99.90;;;;;;5072036;28;20246;-82
2020/12/25 11:17:40;;;;;;;7.40;1.40;;;9.40;99.90;;;;;;5059608;28;20215;-82
2020/12/25 11:20:06;;;;;;;6.20;1.17;;;9.80;99.90;;;;;;5052085;28;20227;-82
2020/12/25 11:22:32;;;;;;;5.70;1.30;;;9.60;99.90;;;;;;5058038;28;20231;-83
2020/12/25 11:25:00;;;;;;;6.30;1.40;;;9.60;99.90;;;;;;5067493;28;20222;-82
2020/12/25 11:27:26;;;;;;;5.17;1.47;;;9.60;99.90;;;;;;5078282;28;20254;-82
2020/12/25 11:29:52;;;;;;;4.73;1.33;;;9.40;99.90;;;;;;5064876;28;20741;-82
2020/12/25 11:32:20;;;;;;;6.73;1.30;;;9.70;99.90;;;;;;5066678;28;20194;-82
2020/12/25 11:34:46;;;;;;;4.90;1.27;;;9.80;99.90;;;;;;5078766;28;20625;-82
2020/12/25 11:37:13;;;;;;;5.40;1.03;;;9.60;99.90;;;;;;5078406;28;20289;-82
2020/12/25 11:39:39;;;;;;;7.17;1.20;;;9.90;99.90;;;;;;5078623;28;20637;-82
2020/12/25 11:42:06;;;;;;;6.97;1.17;;;9.40;99.90;;;;;;5078776;28;20230;-82
2020/12/25 11:44:33;;;;;;;4.90;1.20;;;9.10;99.90;;;;;;5077748;28;20652;-82
2020/12/25 11:46:59;;;;;;;6.17;1.10;;;8.90;99.90;;;;;;5078210;28;20262;-82
2020/12/25 11:49:26;;;;;;;7.00;1.23;;;9.30;99.90;;;;;;5069126;28;20815;-82
2020/12/25 11:51:54;;;;;;;6.20;1.17;;;9.00;99.90;;;;;;5072065;28;20575;-82
2020/12/25 11:54:21;;;;;;;5.87;1.30;;;9.20;99.90;;;;;;5078837;28;20205;-82
2020/12/25 11:56:47;;;;;;;6.40;1.40;;;9.20;99.90;;;;;;5078255;28;20686;-82
2020/12/25 11:59:14;;;;;;;8.83;1.40;;;9.40;99.90;;;;;;5078254;28;20616;-82
2020/12/25 12:01:41;;;;;;;5.33;1.13;;;9.40;99.90;;;;;;5077888;28;20674;-81
2020/12/25 12:04:07;;;;;;;4.60;1.20;;;8.70;99.90;;;;;;5078574;28;20256;-82
2020/12/25 12:06:34;;;;;;;6.83;1.40;;;9.40;99.90;;;;;;5077828;28;20230;-82
2020/12/25 12:09:00;;;;;;;5.20;1.20;;;9.50;99.90;;;;;;5078204;28;20312;-82
2020/12/25 12:11:26;;;;;;;6.47;1.37;;;8.90;99.90;;;;;;5062704;28;20291;-82
2020/12/25 12:13:53;;;;;;;7.00;1.40;;;8.30;99.90;;;;;;5058047;28;20231;-82
2020/12/25 12:16:21;;;;;;;6.17;1.03;;;8.90;99.90;;;;;;5058342;28;20230;-82
2020/12/25 12:18:48;;;;;;;5.17;1.20;;;9.10;99.90;;;;;;5058470;28;20282;-82
2020/12/25 12:21:15;;;;;;;6.23;1.30;;;9.30;99.90;;;;;;5058395;28;20265;-82
2020/12/25 12:23:41;;;;;;;4.37;1.10;;;9.50;99.90;;;;;;5058244;28;20196;-82
2020/12/25 12:26:10;;;;;;;7.10;1.30;;;9.60;99.90;;;;;;5068590;28;20643;-82
2020/12/25 12:28:36;;;;;;;2.97;1.07;;;9.40;99.90;;;;;;5077368;28;20232;-82
2020/12/25 12:31:04;;;;;;;6.27;1.20;;;9.50;99.90;;;;;;5058349;28;20285;-82
2020/12/25 12:33:31;;;;;;;4.40;1.27;;;9.70;99.90;;;;;;5055125;28;20246;-82
2020/12/25 12:35:57;;;;;;;6.03;1.00;;;9.50;99.90;;;;;;5055141;28;20231;-82
2020/12/25 12:38:24;;;;;;;3.77;0.87;;;9.50;99.90;;;;;;5055190;28;20227;-82
2020/12/25 12:40:50;;;;;;;7.53;1.10;;;9.50;99.90;;;;;;5054932;28;20238;-82
2020/12/25 12:43:17;;;;;;;6.23;0.93;;;9.40;99.90;;;;;;5054614;28;20322;-82
2020/12/25 12:45:44;;;;;;;4.27;1.03;;;9.50;99.90;;;;;;5072305;28;20230;-82
2020/12/25 12:48:10;;;;;;;4.27;0.90;;;9.50;99.90;;;;;;5075121;28;20309;-82
2020/12/25 12:50:38;;;;;;;5.37;0.87;;;9.30;99.90;;;;;;5074891;28;20241;-82
2020/12/25 12:53:04;;;;;;;4.27;1.10;;;9.70;99.90;;;;;;5062922;28;20213;-82
2020/12/25 12:55:31;;;;;;;4.67;0.83;;;9.50;99.90;;;;;;5075074;28;20194;-83
2020/12/25 12:57:57;;;;;;;5.13;0.73;;;9.40;99.90;;;;;;5074227;28;20237;-82